sensor_id;sensor_type;location;lat;lon;timestamp;P1;P2;P0
82817;PMS5003;72572;46.824;-71.222;2023-09-08T00:01:07;18.8;18.8;12.95
82817;PMS5003;72572;46.824;-71.222;2023-09-08T00:03:34;18.05;18.05;12.55
82817;PMS5003;72572;46.824;-71.222;2023-09-08T00:05:58;17.36;16.95;11.18
82817;PMS5003;72572;46.824;-71.222;2023-09-08T00:08:25;18.65;18.05;12.5
82817;PMS5003;72572;46.824;-71.222;2023-09-08T00:10:49;17.75;17;12
82817;PMS5003;72572;46.824;-71.222;2023-09-08T00:13:14;17.3;17.3;11.65
82817;PMS5003;72572;46.824;-71.222;2023-09-08T00:15:41;17.52;17.1;11.33
82817;PMS5003;72572;46.824;-71.222;2023-09-08T00:18:05;16.52;16.43;10.43
82817;PMS5003;72572;46.824;-71.222;2023-09-08T00:20:32;16.9;16.52;11.1
82817;PMS5003;72572;46.824;-71.222;2023-09-08T00:22:57;20.5;18.27;11.45
82817;PMS5003;72572;46.824;-71.222;2023-09-08T00:25:22;23.81;23.24;13.24
82817;PMS5003;72572;46.824;-71.222;2023-09-08T00:27:48;20.57;19.48;13.95
82817;PMS5003;72572;46.824;-71.222;2023-09-08T00:30:13;19;19;13.62
82817;PMS5003;72572;46.824;-71.222;2023-09-08T00:32:40;27.38;26.33;18
82817;PMS5003;72572;46.824;-71.222;2023-09-08T00:35:06;20.76;20.48;14.86
82817;PMS5003;72572;46.824;-71.222;2023-09-08T00:37:30;24.05;23.57;15.19
82817;PMS5003;72572;46.824;-71.222;2023-09-08T00:39:57;19.27;18.68;13.27
82817;PMS5003;72572;46.824;-71.222;2023-09-08T00:42:23;22.2;21.65;13.85
82817;PMS5003;72572;46.824;-71.222;2023-09-08T00:44:46;24.71;21.76;14.52
82817;PMS5003;72572;46.824;-71.222;2023-09-08T00:47:13;20.86;19.57;12.67
82817;PMS5003;72572;46.824;-71.222;2023-09-08T00:49:37;18.52;17.48;11.48
82817;PMS5003;72572;46.824;-71.222;2023-09-08T00:52:04;18.14;17.62;12.43
82817;PMS5003;72572;46.824;-71.222;2023-09-08T00:54:40;18.5;18.5;12.77
82817;PMS5003;72572;46.824;-71.222;2023-09-08T00:57:04;24.95;22.18;14.86
82817;PMS5003;72572;46.824;-71.222;2023-09-08T00:59:30;20.86;20.57;13.67
82817;PMS5003;72572;46.824;-71.222;2023-09-08T01:01:55;19.29;19.19;13
82817;PMS5003;72572;46.824;-71.222;2023-09-08T01:04:22;21.57;21.14;14.1
82817;PMS5003;72572;46.824;-71.222;2023-09-08T01:06:48;20.33;19.86;12.57
82817;PMS5003;72572;46.824;-71.222;2023-09-08T01:09:11;18.38;18.24;12.24
82817;PMS5003;72572;46.824;-71.222;2023-09-08T01:11:40;19.55;19.14;12.5
82817;PMS5003;72572;46.824;-71.222;2023-09-08T01:14:03;20.57;20.43;11.48
82817;PMS5003;72572;46.824;-71.222;2023-09-08T01:16:29;18.6;18.05;12.1
82817;PMS5003;72572;46.824;-71.222;2023-09-08T01:18:56;19.45;19.45;12.75
82817;PMS5003;72572;46.824;-71.222;2023-09-08T01:23:50;19.33;18.86;13.29
82817;PMS5003;72572;46.824;-71.222;2023-09-08T01:26:11;19.57;19.38;12.86
82817;PMS5003;72572;46.824;-71.222;2023-09-08T01:28:36;64.15;52.95;30.05
82817;PMS5003;72572;46.824;-71.222;2023-09-08T01:31:04;53.55;43.55;26.75
82817;PMS5003;72572;46.824;-71.222;2023-09-08T01:33:28;20.86;20.52;12.95
82817;PMS5003;72572;46.824;-71.222;2023-09-08T01:35:54;24.6;24.05;14.55
82817;PMS5003;72572;46.824;-71.222;2023-09-08T01:38:17;24.29;22.67;15.38
82817;PMS5003;72572;46.824;-71.222;2023-09-08T01:40:43;44.86;38.19;23.14
82817;PMS5003;72572;46.824;-71.222;2023-09-08T01:43:10;25.29;25.05;17.62
82817;PMS5003;72572;46.824;-71.222;2023-09-08T01:45:36;31.45;29.1;18.05
82817;PMS5003;72572;46.824;-71.222;2023-09-08T01:48:01;73.32;66.37;37.89
82817;PMS5003;72572;46.824;-71.222;2023-09-08T01:50:27;32.52;28.43;18.19
82817;PMS5003;72572;46.824;-71.222;2023-09-08T01:52:50;22.74;22.58;14.21
82817;PMS5003;72572;46.824;-71.222;2023-09-08T01:55:17;20.33;19.76;13.38
82817;PMS5003;72572;46.824;-71.222;2023-09-08T01:57:43;73.71;66.43;32.05
82817;PMS5003;72572;46.824;-71.222;2023-09-08T02:00:07;31.35;27.8;17.55
82817;PMS5003;72572;46.824;-71.222;2023-09-08T02:02:32;36.05;32.65;19
82817;PMS5003;72572;46.824;-71.222;2023-09-08T02:04:58;17.62;16.71;12.14
82817;PMS5003;72572;46.824;-71.222;2023-09-08T02:07:24;19.5;19;12.15
82817;PMS5003;72572;46.824;-71.222;2023-09-08T02:09:50;14.14;13.57;9.19
82817;PMS5003;72572;46.824;-71.222;2023-09-08T02:12:14;14.48;13.24;9.76
82817;PMS5003;72572;46.824;-71.222;2023-09-08T02:14:41;15.05;14.57;9.95
82817;PMS5003;72572;46.824;-71.222;2023-09-08T02:17:04;14.24;13.57;10.38
82817;PMS5003;72572;46.824;-71.222;2023-09-08T02:19:32;13.27;13.27;9.95
82817;PMS5003;72572;46.824;-71.222;2023-09-08T02:21:55;12.81;12.14;8.38
82817;PMS5003;72572;46.824;-71.222;2023-09-08T02:24:22;12.48;12.48;8.24
82817;PMS5003;72572;46.824;-71.222;2023-09-08T02:26:49;14.71;14.57;10.38
82817;PMS5003;72572;46.824;-71.222;2023-09-08T02:29:12;13.76;12.95;8.1
82817;PMS5003;72572;46.824;-71.222;2023-09-08T02:31:38;11.05;11.05;7.52
82817;PMS5003;72572;46.824;-71.222;2023-09-08T02:34:04;13.05;11.76;7.9
82817;PMS5003;72572;46.824;-71.222;2023-09-08T02:36:27;13;12.14;8.59
82817;PMS5003;72572;46.824;-71.222;2023-09-08T02:38:54;11.95;11.52;6.67
82817;PMS5003;72572;46.824;-71.222;2023-09-08T02:41:18;10.48;10.48;7.52
82817;PMS5003;72572;46.824;-71.222;2023-09-08T02:43:44;12.19;12.19;8.67
82817;PMS5003;72572;46.824;-71.222;2023-09-08T02:46:09;14.48;13.86;8.33
82817;PMS5003;72572;46.824;-71.222;2023-09-08T02:48:37;11.9;10.95;7.48
82817;PMS5003;72572;46.824;-71.222;2023-09-08T02:51:00;11.52;10.86;7.71
82817;PMS5003;72572;46.824;-71.222;2023-09-08T02:53:28;10.59;10.41;8.41
82817;PMS5003;72572;46.824;-71.222;2023-09-08T02:55:51;11.95;11.71;8.1
82817;PMS5003;72572;46.824;-71.222;2023-09-08T02:58:17;11.33;11.33;7.52
82817;PMS5003;72572;46.824;-71.222;2023-09-08T03:00:44;11.95;11.62;8.43
82817;PMS5003;72572;46.824;-71.222;2023-09-08T03:03:07;11.29;11.29;7.62
82817;PMS5003;72572;46.824;-71.222;2023-09-08T03:05:33;10;9.76;6.76
82817;PMS5003;72572;46.824;-71.222;2023-09-08T03:07:58;8.95;8.95;5.76
82817;PMS5003;72572;46.824;-71.222;2023-09-08T03:10:24;9.36;8.77;5.27
82817;PMS5003;72572;46.824;-71.222;2023-09-08T03:12:49;11.67;11.05;7.81
82817;PMS5003;72572;46.824;-71.222;2023-09-08T03:15:14;11.24;11.05;7.52
82817;PMS5003;72572;46.824;-71.222;2023-09-08T03:17:40;11.86;11.86;7.52
82817;PMS5003;72572;46.824;-71.222;2023-09-08T03:20:06;9.9;9.19;6.1
82817;PMS5003;72572;46.824;-71.222;2023-09-08T03:22:32;10.81;10.81;6.48
82817;PMS5003;72572;46.824;-71.222;2023-09-08T03:24:55;9.95;9.24;6.52
82817;PMS5003;72572;46.824;-71.222;2023-09-08T03:27:21;12.86;12.59;8.36
82817;PMS5003;72572;46.824;-71.222;2023-09-08T03:29:48;8.76;8.76;5.57
82817;PMS5003;72572;46.824;-71.222;2023-09-08T03:32:14;11.48;10.76;6.57
82817;PMS5003;72572;46.824;-71.222;2023-09-08T03:34:37;8.52;8.52;6.38
82817;PMS5003;72572;46.824;-71.222;2023-09-08T03:37:03;9.33;8.24;5.48
82817;PMS5003;72572;46.824;-71.222;2023-09-08T03:39:28;8.67;8.67;5.81
82817;PMS5003;72572;46.824;-71.222;2023-09-08T03:41:54;7.9;7.67;5.24
82817;PMS5003;72572;46.824;-71.222;2023-09-08T03:44:20;8.59;8.41;4.45
82817;PMS5003;72572;46.824;-71.222;2023-09-08T03:46:45;8.38;8.1;6
82817;PMS5003;72572;46.824;-71.222;2023-09-08T03:49:11;8.33;7.76;4.48
82817;PMS5003;72572;46.824;-71.222;2023-09-08T03:51:37;10.1;10.1;6.57
82817;PMS5003;72572;46.824;-71.222;2023-09-08T03:53:59;8.48;7.9;4.67
82817;PMS5003;72572;46.824;-71.222;2023-09-08T03:56:25;7.38;7.38;5
82817;PMS5003;72572;46.824;-71.222;2023-09-08T03:58:52;9.52;9.38;7
82817;PMS5003;72572;46.824;-71.222;2023-09-08T04:01:17;9.36;9.36;6.55
82817;PMS5003;72572;46.824;-71.222;2023-09-08T04:03:43;9.57;8.71;6
82817;PMS5003;72572;46.824;-71.222;2023-09-08T04:06:08;10;10;6.81
82817;PMS5003;72572;46.824;-71.222;2023-09-08T04:08:35;8.29;7.48;5.29
82817;PMS5003;72572;46.824;-71.222;2023-09-08T04:10:58;8.33;8.33;5.52
82817;PMS5003;72572;46.824;-71.222;2023-09-08T04:13:24;5.52;5.52;4.52
82817;PMS5003;72572;46.824;-71.222;2023-09-08T04:15:50;8.43;8.43;5.38
82817;PMS5003;72572;46.824;-71.222;2023-09-08T04:18:16;10.5;8.4;5.55
82817;PMS5003;72572;46.824;-71.222;2023-09-08T04:20:42;8.57;8.24;5.05
82817;PMS5003;72572;46.824;-71.222;2023-09-08T04:23:07;8.33;8.33;6.57
82817;PMS5003;72572;46.824;-71.222;2023-09-08T04:25:30;10;9;5.81
82817;PMS5003;72572;46.824;-71.222;2023-09-08T04:27:56;10.86;9.67;6.52
82817;PMS5003;72572;46.824;-71.222;2023-09-08T04:30:21;8.43;8.43;4.9
82817;PMS5003;72572;46.824;-71.222;2023-09-08T04:32:48;9.62;9.62;7.05
82817;PMS5003;72572;46.824;-71.222;2023-09-08T04:35:14;7.41;6.91;4.41
82817;PMS5003;72572;46.824;-71.222;2023-09-08T04:37:38;10.1;9.81;5.81
82817;PMS5003;72572;46.824;-71.222;2023-09-08T04:40:04;10.71;10.29;7.38
82817;PMS5003;72572;46.824;-71.222;2023-09-08T04:42:30;9.29;9;5.81
82817;PMS5003;72572;46.824;-71.222;2023-09-08T04:44:53;9.95;9.71;5.52
82817;PMS5003;72572;46.824;-71.222;2023-09-08T04:47:18;8.38;8;5.43
82817;PMS5003;72572;46.824;-71.222;2023-09-08T04:49:44;8.48;7.95;5.71
82817;PMS5003;72572;46.824;-71.222;2023-09-08T04:52:11;9.14;8.55;5.55
82817;PMS5003;72572;46.824;-71.222;2023-09-08T04:54:37;9.62;9.62;6.24
82817;PMS5003;72572;46.824;-71.222;2023-09-08T04:57:01;10.24;10.24;6.62
82817;PMS5003;72572;46.824;-71.222;2023-09-08T04:59:25;8.95;8.81;5.38
82817;PMS5003;72572;46.824;-71.222;2023-09-08T05:01:51;8.57;8.19;4.67
82817;PMS5003;72572;46.824;-71.222;2023-09-08T05:04:17;8.52;8.29;6.05
82817;PMS5003;72572;46.824;-71.222;2023-09-08T05:06:43;9.33;8.86;5.86
82817;PMS5003;72572;46.824;-71.222;2023-09-08T05:09:08;10.09;9.68;6
82817;PMS5003;72572;46.824;-71.222;2023-09-08T05:11:34;7.38;7.1;5.24
82817;PMS5003;72572;46.824;-71.222;2023-09-08T05:13:58;7.62;7.62;5.1
82817;PMS5003;72572;46.824;-71.222;2023-09-08T05:16:23;8.43;7.48;5.81
82817;PMS5003;72572;46.824;-71.222;2023-09-08T05:18:50;7.9;7.19;4.48
82817;PMS5003;72572;46.824;-71.222;2023-09-08T05:21:14;13.1;12.43;6.9
82817;PMS5003;72572;46.824;-71.222;2023-09-08T05:23:38;24.86;23.57;14.76
82817;PMS5003;72572;46.824;-71.222;2023-09-08T05:26:05;35.95;29.5;16.95
82817;PMS5003;72572;46.824;-71.222;2023-09-08T05:28:30;32;28.76;15.95
82817;PMS5003;72572;46.824;-71.222;2023-09-08T05:30:56;30.43;27.86;17.33
82817;PMS5003;72572;46.824;-71.222;2023-09-08T05:33:23;32.55;29.95;18.4
82817;PMS5003;72572;46.824;-71.222;2023-09-08T05:35:45;35.79;30.84;17.42
82817;PMS5003;72572;46.824;-71.222;2023-09-08T05:38:12;31.19;29.52;18.9
82817;PMS5003;72572;46.824;-71.222;2023-09-08T05:40:37;37.32;32.16;19.42
82817;PMS5003;72572;46.824;-71.222;2023-09-08T05:43:04;34.64;31;16.91
82817;PMS5003;72572;46.824;-71.222;2023-09-08T05:45:31;30.3;28.15;16
82817;PMS5003;72572;46.824;-71.222;2023-09-08T05:47:54;37.89;32.95;19.32
82817;PMS5003;72572;46.824;-71.222;2023-09-08T05:50:20;37.4;31.85;18.85
82817;PMS5003;72572;46.824;-71.222;2023-09-08T05:52:44;34.43;32.29;19.71
82817;PMS5003;72572;46.824;-71.222;2023-09-08T05:55:11;38.47;33.79;19.16
82817;PMS5003;72572;46.824;-71.222;2023-09-08T05:57:36;40.74;35;20.95
82817;PMS5003;72572;46.824;-71.222;2023-09-08T06:00:03;40;33.95;20.85
82817;PMS5003;72572;46.824;-71.222;2023-09-08T06:02:28;40.63;34.26;20.42
82817;PMS5003;72572;46.824;-71.222;2023-09-08T06:04:51;42.53;36;22
82817;PMS5003;72572;46.824;-71.222;2023-09-08T06:07:18;41.21;34.63;21.42
82817;PMS5003;72572;46.824;-71.222;2023-09-08T06:09:42;38.24;32.67;19.43
82817;PMS5003;72572;46.824;-71.222;2023-09-08T06:12:09;46.26;37.37;21.58
82817;PMS5003;72572;46.824;-71.222;2023-09-08T06:14:33;34.48;31.38;18.62
82817;PMS5003;72572;46.824;-71.222;2023-09-08T06:17:00;32.05;29.91;18.41
82817;PMS5003;72572;46.824;-71.222;2023-09-08T06:19:26;38.37;32.58;18.58
82817;PMS5003;72572;46.824;-71.222;2023-09-08T06:21:51;35.32;30.47;17.47
82817;PMS5003;72572;46.824;-71.222;2023-09-08T06:24:14;32.9;29.7;17.15
82817;PMS5003;72572;46.824;-71.222;2023-09-08T06:26:40;29.95;28.05;17.33
82817;PMS5003;72572;46.824;-71.222;2023-09-08T06:29:06;35.24;31.9;19.95
82817;PMS5003;72572;46.824;-71.222;2023-09-08T06:31:32;35.35;32.05;20.35
82817;PMS5003;72572;46.824;-71.222;2023-09-08T06:33:58;32.32;30.36;17.05
82817;PMS5003;72572;46.824;-71.222;2023-09-08T06:36:23;38.94;31.89;19.17
82817;PMS5003;72572;46.824;-71.222;2023-09-08T06:38:49;33.05;29.35;17.9
82817;PMS5003;72572;46.824;-71.222;2023-09-08T06:41:15;35.29;31.43;19.19
82817;PMS5003;72572;46.824;-71.222;2023-09-08T06:43:37;36.05;32.65;19.25
82817;PMS5003;72572;46.824;-71.222;2023-09-08T06:46:05;31.57;29.48;16.9
82817;PMS5003;72572;46.824;-71.222;2023-09-08T06:48:28;37.29;33.43;18.48
82817;PMS5003;72572;46.824;-71.222;2023-09-08T06:50:54;36.81;32.48;17.67
82817;PMS5003;72572;46.824;-71.222;2023-09-08T06:53:20;42.53;34.21;20.95
82817;PMS5003;72572;46.824;-71.222;2023-09-08T06:55:46;37.68;31.63;19.68
82817;PMS5003;72572;46.824;-71.222;2023-09-08T06:58:10;43.74;33.68;20.16
82817;PMS5003;72572;46.824;-71.222;2023-09-08T07:00:37;36.1;31.86;20.24
82817;PMS5003;72572;46.824;-71.222;2023-09-08T07:03:00;35.3;31.5;19.3
82817;PMS5003;72572;46.824;-71.222;2023-09-08T07:05:25;37.33;32.17;20.39
82817;PMS5003;72572;46.824;-71.222;2023-09-08T07:07:51;39.05;32.53;18.89
82817;PMS5003;72572;46.824;-71.222;2023-09-08T07:10:17;35.5;31.7;18.65
82817;PMS5003;72572;46.824;-71.222;2023-09-08T07:12:43;49.3;41.5;26.7
82817;PMS5003;72572;46.824;-71.222;2023-09-08T07:15:09;41.42;33.68;21.42
82817;PMS5003;72572;46.824;-71.222;2023-09-08T07:17:34;45.67;38.14;24.1
82817;PMS5003;72572;46.824;-71.222;2023-09-08T07:20:00;40.45;34.6;21.7
82817;PMS5003;72572;46.824;-71.222;2023-09-08T07:22:23;44.37;35.26;22.79
82817;PMS5003;72572;46.824;-71.222;2023-09-08T07:24:51;36.45;31.23;19.5
82817;PMS5003;72572;46.824;-71.222;2023-09-08T07:27:15;34.9;31.25;18.8
82817;PMS5003;72572;46.824;-71.222;2023-09-08T07:29:39;55.26;44.47;28.32
82817;PMS5003;72572;46.824;-71.222;2023-09-08T07:32:05;48.74;40.32;25.79
82817;PMS5003;72572;46.824;-71.222;2023-09-08T07:34:30;45.11;37.05;22.53
82817;PMS5003;72572;46.824;-71.222;2023-09-08T07:36:56;36.89;30.74;18.68
82817;PMS5003;72572;46.824;-71.222;2023-09-08T07:39:22;34.05;30;17.71
82817;PMS5003;72572;46.824;-71.222;2023-09-08T07:41:46;35.76;31.57;17.29
82817;PMS5003;72572;46.824;-71.222;2023-09-08T07:44:12;40.25;34;19.3
82817;PMS5003;72572;46.824;-71.222;2023-09-08T07:46:38;35.8;30.35;16.85
82817;PMS5003;72572;46.824;-71.222;2023-09-08T07:49:04;24.29;23;13.43
82817;PMS5003;72572;46.824;-71.222;2023-09-08T07:51:28;29.11;28.37;15.95
82817;PMS5003;72572;46.824;-71.222;2023-09-08T07:53:54;36.85;31;17.8
82817;PMS5003;72572;46.824;-71.222;2023-09-08T07:56:30;41.57;36;21.48
82817;PMS5003;72572;46.824;-71.222;2023-09-08T07:58:55;46.3;37.15;20.3
82817;PMS5003;72572;46.824;-71.222;2023-09-08T08:01:21;49.7;40.25;23.6
82817;PMS5003;72572;46.824;-71.222;2023-09-08T08:03:47;38;31;17.37
82817;PMS5003;72572;46.824;-71.222;2023-09-08T08:06:09;38.53;31.79;17.11
82817;PMS5003;72572;46.824;-71.222;2023-09-08T08:08:36;43.05;36.21;21.58
82817;PMS5003;72572;46.824;-71.222;2023-09-08T08:11:01;49.16;39.42;21.95
82817;PMS5003;72572;46.824;-71.222;2023-09-08T08:13:28;50.62;38.71;22.71
82817;PMS5003;72572;46.824;-71.222;2023-09-08T08:15:52;61.11;47.16;27.05
82817;PMS5003;72572;46.824;-71.222;2023-09-08T08:18:18;43.37;35.79;22.11
82817;PMS5003;72572;46.824;-71.222;2023-09-08T08:20:44;61.2;47.75;27.2
82817;PMS5003;72572;46.824;-71.222;2023-09-08T08:23:09;59.37;46.37;25.89
82817;PMS5003;72572;46.824;-71.222;2023-09-08T08:25:33;63.4;48.75;27.85
82817;PMS5003;72572;46.824;-71.222;2023-09-08T08:28:00;68.68;53.16;29.21
82817;PMS5003;72572;46.824;-71.222;2023-09-08T08:30:24;47.32;40.41;23.45
82817;PMS5003;72572;46.824;-71.222;2023-09-08T08:32:49;44.6;36.6;21.3
82817;PMS5003;72572;46.824;-71.222;2023-09-08T08:35:16;66;51.63;28.53
82817;PMS5003;72572;46.824;-71.222;2023-09-08T08:37:40;51.65;40.8;23.25
82817;PMS5003;72572;46.824;-71.222;2023-09-08T08:40:06;42.3;34.4;20.45
82817;PMS5003;72572;46.824;-71.222;2023-09-08T08:42:32;42.05;34.45;19.2
82817;PMS5003;72572;46.824;-71.222;2023-09-08T08:44:57;50.78;40.89;23.28
82817;PMS5003;72572;46.824;-71.222;2023-09-08T08:47:22;45.24;36.43;21.14
82817;PMS5003;72572;46.824;-71.222;2023-09-08T08:49:48;51.75;40.5;22.25
82817;PMS5003;72572;46.824;-71.222;2023-09-08T08:52:13;45.26;37.63;21.42
82817;PMS5003;72572;46.824;-71.222;2023-09-08T08:54:38;38.15;33.75;20.05
82817;PMS5003;72572;46.824;-71.222;2023-09-08T08:57:05;47.11;38.26;22.16
82817;PMS5003;72572;46.824;-71.222;2023-09-08T08:59:30;37.25;32.05;16.65
82817;PMS5003;72572;46.824;-71.222;2023-09-08T09:13:21;42.47;34.37;19.11
82817;PMS5003;72572;46.824;-71.222;2023-09-08T09:13:33;33.55;30.65;19.25
82817;PMS5003;72572;46.824;-71.222;2023-09-08T09:13:48;34.14;31.19;17.05
82817;PMS5003;72572;46.824;-71.222;2023-09-08T09:14:00;35.65;30.7;16.6
82817;PMS5003;72572;46.824;-71.222;2023-09-08T09:14:10;29.82;28.95;15.18
82817;PMS5003;72572;46.824;-71.222;2023-09-08T09:15:42;24.36;24.36;14.59
82817;PMS5003;72572;46.824;-71.222;2023-09-08T09:18:06;28.3;24.8;11.6
82817;PMS5003;72572;46.824;-71.222;2023-09-08T09:20:33;22.68;21.41;12.45
82817;PMS5003;72572;46.824;-71.222;2023-09-08T09:22:56;25.19;23.43;13.57
82817;PMS5003;72572;46.824;-71.222;2023-09-08T09:25:23;30.84;26.47;13.47
82817;PMS5003;72572;46.824;-71.222;2023-09-08T09:27:49;27.58;25.21;15.05
82817;PMS5003;72572;46.824;-71.222;2023-09-08T09:30:13;21.19;19.81;13.05
82817;PMS5003;72572;46.824;-71.222;2023-09-08T09:32:40;26.05;23.52;11.81
82817;PMS5003;72572;46.824;-71.222;2023-09-08T09:35:05;26.76;24;12.48
82817;PMS5003;72572;46.824;-71.222;2023-09-08T09:37:31;23.27;21.45;13.09
82817;PMS5003;72572;46.824;-71.222;2023-09-08T09:39:57;22.5;21.23;11.86
82817;PMS5003;72572;46.824;-71.222;2023-09-08T09:42:23;21.19;18.71;11
82817;PMS5003;72572;46.824;-71.222;2023-09-08T09:44:49;26.95;24.32;12.21
82817;PMS5003;72572;46.824;-71.222;2023-09-08T09:47:11;23.57;22.67;11.9
82817;PMS5003;72572;46.824;-71.222;2023-09-08T09:49:41;25.58;22.53;12.58
82817;PMS5003;72572;46.824;-71.222;2023-09-08T09:52:02;21.15;20;10.85
82817;PMS5003;72572;46.824;-71.222;2023-09-08T09:54:28;29.55;24.35;11.45
82817;PMS5003;72572;46.824;-71.222;2023-09-08T09:56:53;24.47;21.16;11.32
82817;PMS5003;72572;46.824;-71.222;2023-09-08T09:59:20;23.74;21;11.05
82817;PMS5003;72572;46.824;-71.222;2023-09-08T10:01:46;22.29;20.86;10.86
82817;PMS5003;72572;46.824;-71.222;2023-09-08T10:04:10;21;20.81;12.29
82817;PMS5003;72572;46.824;-71.222;2023-09-08T10:06:37;20.05;18.38;10.76
82817;PMS5003;72572;46.824;-71.222;2023-09-08T10:09:02;19.1;19.1;12.67
82817;PMS5003;72572;46.824;-71.222;2023-09-08T10:11:25;19.32;17.09;10.14
82817;PMS5003;72572;46.824;-71.222;2023-09-08T10:13:53;20.95;20.05;11.52
82817;PMS5003;72572;46.824;-71.222;2023-09-08T10:16:19;31.53;27.79;14.89
82817;PMS5003;72572;46.824;-71.222;2023-09-08T10:18:44;23.52;22.67;10.81
82817;PMS5003;72572;46.824;-71.222;2023-09-08T10:21:07;20.86;20.62;10.67
82817;PMS5003;72572;46.824;-71.222;2023-09-08T10:23:36;20.9;19.48;12.05
82817;PMS5003;72572;46.824;-71.222;2023-09-08T10:25:59;25.81;24.86;11.57
82817;PMS5003;72572;46.824;-71.222;2023-09-08T10:28:24;24.15;21.1;10
82817;PMS5003;72572;46.824;-71.222;2023-09-08T10:30:50;28.1;24.33;11.38
82817;PMS5003;72572;46.824;-71.222;2023-09-08T10:33:17;23.3;21.7;11.95
82817;PMS5003;72572;46.824;-71.222;2023-09-08T10:35:39;25.19;24.57;12.76
82817;PMS5003;72572;46.824;-71.222;2023-09-08T10:38:21;29.32;24.26;14.47
82817;PMS5003;72572;46.824;-71.222;2023-09-08T10:40:30;30.29;27.67;17.24
82817;PMS5003;72572;46.824;-71.222;2023-09-08T10:43:12;35.57;31.57;19.43
82817;PMS5003;72572;46.824;-71.222;2023-09-08T10:45:21;31.09;28;17.23
82817;PMS5003;72572;46.824;-71.222;2023-09-08T10:47:55;27.14;26.57;14
82817;PMS5003;72572;46.824;-71.222;2023-09-08T10:50:15;35.19;31.62;18.29
82817;PMS5003;72572;46.824;-71.222;2023-09-08T10:52:38;36.4;31;18.6
82817;PMS5003;72572;46.824;-71.222;2023-09-08T10:55:03;31.42;27.58;16.16
82817;PMS5003;72572;46.824;-71.222;2023-09-08T10:57:28;34.19;31.19;19.24
82817;PMS5003;72572;46.824;-71.222;2023-09-08T10:59:56;38.26;30.74;17.42
82817;PMS5003;72572;46.824;-71.222;2023-09-08T11:02:33;36.7;31.9;19.5
82817;PMS5003;72572;46.824;-71.222;2023-09-08T11:04:46;26.67;25.86;15.05
82817;PMS5003;72572;46.824;-71.222;2023-09-08T11:07:11;36.05;30.58;15.79
82817;PMS5003;72572;46.824;-71.222;2023-09-08T11:09:35;31.29;29.81;15.33
82817;PMS5003;72572;46.824;-71.222;2023-09-08T11:12:03;32.89;27.89;14.47
82817;PMS5003;72572;46.824;-71.222;2023-09-08T11:14:26;32.95;28.37;15.84
82817;PMS5003;72572;46.824;-71.222;2023-09-08T11:16:53;32.84;29.16;15.95
82817;PMS5003;72572;46.824;-71.222;2023-09-08T11:19:19;32.15;28.75;15.25
82817;PMS5003;72572;46.824;-71.222;2023-09-08T11:21:44;31.33;28.81;13.52
82817;PMS5003;72572;46.824;-71.222;2023-09-08T11:24:09;23.24;22.67;13.19
82817;PMS5003;72572;46.824;-71.222;2023-09-08T11:26:35;39.89;31.79;18.84
82817;PMS5003;72572;46.824;-71.222;2023-09-08T11:29:00;37.28;31.94;16.28
82817;PMS5003;72572;46.824;-71.222;2023-09-08T11:31:25;36.21;30.37;17.32
82817;PMS5003;72572;46.824;-71.222;2023-09-08T11:33:49;45.28;34.06;20.28
82817;PMS5003;72572;46.824;-71.222;2023-09-08T11:36:15;46.9;38.9;21.43
82817;PMS5003;72572;46.824;-71.222;2023-09-08T11:38:42;42.53;32.79;19.42
82817;PMS5003;72572;46.824;-71.222;2023-09-08T11:41:06;37.58;31;14.47
82817;PMS5003;72572;46.824;-71.222;2023-09-08T11:43:32;30.67;29.81;17.81
82817;PMS5003;72572;46.824;-71.222;2023-09-08T11:45:57;33.95;30.95;17.81
82817;PMS5003;72572;46.824;-71.222;2023-09-08T11:48:22;32.19;29.52;15.9
82817;PMS5003;72572;46.824;-71.222;2023-09-08T11:50:48;29.4;25.75;15.2
82817;PMS5003;72572;46.824;-71.222;2023-09-08T11:53:13;33.09;30.41;17.95
82817;PMS5003;72572;46.824;-71.222;2023-09-08T11:55:38;29.14;27.9;16.67
82817;PMS5003;72572;46.824;-71.222;2023-09-08T11:58:05;35.5;28.75;16.25
82817;PMS5003;72572;46.824;-71.222;2023-09-08T12:00:29;32.76;30.24;17.57
82817;PMS5003;72572;46.824;-71.222;2023-09-08T12:02:55;30.9;28;15.86
82817;PMS5003;72572;46.824;-71.222;2023-09-08T12:05:20;36.47;31.16;16.74
82817;PMS5003;72572;46.824;-71.222;2023-09-08T12:07:44;31.14;28.9;14.95
82817;PMS5003;72572;46.824;-71.222;2023-09-08T12:10:11;25.91;24.32;13.05
82817;PMS5003;72572;46.824;-71.222;2023-09-08T12:12:41;39.89;32.79;17.95
82817;PMS5003;72572;46.824;-71.222;2023-09-08T12:15:01;30.9;29;16.43
82817;PMS5003;72572;46.824;-71.222;2023-09-08T12:17:26;32.81;29.86;16.05
82817;PMS5003;72572;46.824;-71.222;2023-09-08T12:19:52;37.1;32.48;18.33
82817;PMS5003;72572;46.824;-71.222;2023-09-08T12:22:18;32.3;29.2;16.05
82817;PMS5003;72572;46.824;-71.222;2023-09-08T12:24:56;35.21;29.68;16.74
82817;PMS5003;72572;46.824;-71.222;2023-09-08T12:27:10;40.55;33.45;18.05
82817;PMS5003;72572;46.824;-71.222;2023-09-08T12:29:34;31.9;28.19;15.67
82817;PMS5003;72572;46.824;-71.222;2023-09-08T12:32:01;40.63;33.11;18.53
82817;PMS5003;72572;46.824;-71.222;2023-09-08T12:34:26;28.29;27.33;15.29
82817;PMS5003;72572;46.824;-71.222;2023-09-08T12:36:50;34.68;30.53;17.21
82817;PMS5003;72572;46.824;-71.222;2023-09-08T12:39:16;35.11;30.47;15.32
82817;PMS5003;72572;46.824;-71.222;2023-09-08T12:41:40;28.19;27.43;17.43
82817;PMS5003;72572;46.824;-71.222;2023-09-08T12:44:08;39.15;32.2;19.15
82817;PMS5003;72572;46.824;-71.222;2023-09-08T12:46:33;35.17;28.33;16.94
82817;PMS5003;72572;46.824;-71.222;2023-09-08T12:48:58;30.1;28.14;15.86
82817;PMS5003;72572;46.824;-71.222;2023-09-08T12:51:23;35.21;29.37;16.63
82817;PMS5003;72572;46.824;-71.222;2023-09-08T12:53:49;30.9;29.48;17.05
82817;PMS5003;72572;46.824;-71.222;2023-09-08T12:56:12;30.67;29.05;15
82817;PMS5003;72572;46.824;-71.222;2023-09-08T12:58:39;35.9;28;14.6
82817;PMS5003;72572;46.824;-71.222;2023-09-08T13:01:04;30.65;26.05;14.3
82817;PMS5003;72572;46.824;-71.222;2023-09-08T13:03:29;32.71;27.48;14.1
82817;PMS5003;72572;46.824;-71.222;2023-09-08T13:05:56;28.48;26.95;14.14
82817;PMS5003;72572;46.824;-71.222;2023-09-08T13:08:19;30.95;26.42;14.53
82817;PMS5003;72572;46.824;-71.222;2023-09-08T13:10:47;36.43;31.05;16.9
82817;PMS5003;72572;46.824;-71.222;2023-09-08T13:13:10;27.14;24.38;15.05
82817;PMS5003;72572;46.824;-71.222;2023-09-08T13:15:37;33.21;28;15.74
82817;PMS5003;72572;46.824;-71.222;2023-09-08T13:18:03;26.64;25.36;13.82
82817;PMS5003;72572;46.824;-71.222;2023-09-08T13:20:28;26.71;26.24;14.62
82817;PMS5003;72572;46.824;-71.222;2023-09-08T13:22:52;42.63;33.32;19.95
82817;PMS5003;72572;46.824;-71.222;2023-09-08T13:25:17;30.5;25.6;13.65
82817;PMS5003;72572;46.824;-71.222;2023-09-08T13:27:42;30.29;28.38;14.9
82817;PMS5003;72572;46.824;-71.222;2023-09-08T13:30:11;40.74;32.58;19.11
82817;PMS5003;72572;46.824;-71.222;2023-09-08T13:32:34;33.57;31.1;17.38